Time;durP1;ratioP1;P1;durP2;ratioP2;P2;SDS_P1;SDS_P2;PMS_P1;PMS_P2;Temp;Humidity;BMP_temperature;BMP_pressure;BME280_temperature;BME280_humidity;BME280_pressure;Samples;Min_cycle;Max_cycle;Signal;HPM_P1;HPM_P2
2022/02/28 00:01:23;;;;;;;4.07;3.10;;;21.40;53.70;;;;;;5096032;28;20381;-81
2022/02/28 00:03:54;;;;;;;6.43;4.17;;;21.30;53.60;;;;;;5077760;28;20497;-81
2022/02/28 00:06:26;;;;;;;3.97;3.03;;;21.30;53.60;;;;;;5095214;28;20439;-81
2022/02/28 00:08:56;;;;;;;5.90;4.00;;;21.30;53.60;;;;;;5096102;28;20389;-81
2022/02/28 00:11:21;;;;;;;5.70;3.60;;;21.30;53.60;;;;;;5095817;28;20409;-81
2022/02/28 00:13:49;;;;;;;4.30;3.53;;;21.30;53.60;;;;;;5077987;28;20476;-81
2022/02/28 00:16:18;;;;;;;3.67;3.27;;;21.30;53.60;;;;;;5077176;28;20428;-81
2022/02/28 00:18:44;;;;;;;4.03;3.20;;;21.30;53.60;;;;;;5077902;28;20448;-81
2022/02/28 00:21:11;;;;;;;4.37;3.50;;;21.30;53.60;;;;;;5094991;28;20401;-81
2022/02/28 00:23:42;;;;;;;5.93;3.70;;;21.30;53.60;;;;;;5093986;28;20459;-81
2022/02/28 00:26:09;;;;;;;4.80;3.13;;;21.30;53.60;;;;;;5078563;28;20397;-81
2022/02/28 00:28:37;;;;;;;5.07;2.97;;;21.30;53.60;;;;;;5077736;28;20423;-81
2022/02/28 00:31:06;;;;;;;3.60;2.80;;;21.30;53.60;;;;;;5077078;28;20416;-81
2022/02/28 00:33:32;;;;;;;3.87;3.43;;;21.30;53.60;;;;;;5078039;28;20421;-81
2022/02/28 00:35:59;;;;;;;5.17;3.60;;;21.30;53.60;;;;;;5077979;28;20425;-81
2022/02/28 00:38:26;;;;;;;5.10;3.33;;;21.30;53.60;;;;;;5061144;28;20464;-81
2022/02/28 00:40:58;;;;;;;5.30;3.03;;;21.30;53.60;;;;;;5060765;28;20440;-81
2022/02/28 00:43:25;;;;;;;3.97;3.33;;;21.20;53.60;;;;;;5094869;28;20415;-81
2022/02/28 00:45:52;;;;;;;3.80;3.00;;;21.30;53.60;;;;;;5077665;28;20523;-81
2022/02/28 00:48:20;;;;;;;4.53;3.13;;;21.30;53.20;;;;;;5060603;28;20463;-81
2022/02/28 00:50:51;;;;;;;4.23;2.63;;;21.30;53.70;;;;;;5094965;28;20421;-81
2022/02/28 00:53:21;;;;;;;3.60;3.03;;;21.20;53.60;;;;;;5076187;28;20428;-81
2022/02/28 00:55:47;;;;;;;4.80;2.90;;;21.30;53.60;;;;;;5093014;28;20408;-83
2022/02/28 00:58:13;;;;;;;3.23;2.93;;;21.20;53.60;;;;;;5074132;28;20425;-83
2022/02/28 01:00:39;;;;;;;4.30;3.50;;;21.20;53.60;;;;;;5066032;28;20970;-83
2022/02/28 01:03:05;;;;;;;3.50;2.83;;;21.20;54.10;;;;;;5120342;28;20444;-83
2022/02/28 01:05:32;;;;;;;3.53;2.50;;;21.20;53.60;;;;;;5091734;28;20427;-83
2022/02/28 01:07:58;;;;;;;4.20;3.27;;;21.20;53.60;;;;;;5091777;28;20434;-84
2022/02/28 01:10:24;;;;;;;4.97;3.17;;;21.20;53.60;;;;;;5090704;28;20412;-83
2022/02/28 01:12:51;;;;;;;4.07;2.93;;;21.20;53.60;;;;;;5092313;28;20204;-83
2022/02/28 01:15:20;;;;;;;4.77;3.33;;;21.20;53.60;;;;;;5091602;28;20407;-83
2022/02/28 01:17:47;;;;;;;3.57;3.23;;;21.20;53.60;;;;;;5109674;28;20413;-84
2022/02/28 01:20:14;;;;;;;4.03;3.10;;;21.20;53.60;;;;;;5075254;28;20459;-83
2022/02/28 01:22:41;;;;;;;4.20;3.07;;;21.20;53.60;;;;;;5110126;28;20921;-83
2022/02/28 01:25:08;;;;;;;4.40;3.50;;;21.20;53.60;;;;;;5092602;28;20410;-83
2022/02/28 01:27:34;;;;;;;4.10;3.70;;;21.20;53.60;;;;;;5092513;28;20173;-83
2022/02/28 01:30:00;;;;;;;4.30;3.27;;;21.20;53.60;;;;;;5091909;28;20442;-83
2022/02/28 01:32:26;;;;;;;4.47;3.90;;;21.20;53.60;;;;;;5110651;28;20408;-83
2022/02/28 01:34:52;;;;;;;4.53;3.00;;;21.20;53.60;;;;;;5074903;28;20172;-83
2022/02/28 01:37:18;;;;;;;4.70;3.30;;;21.20;53.60;;;;;;5109537;28;20432;-83
2022/02/28 01:39:46;;;;;;;5.60;3.13;;;21.20;54.10;;;;;;5092888;28;20267;-83
2022/02/28 01:42:13;;;;;;;4.10;3.30;;;21.20;53.60;;;;;;5091546;28;20198;-83
2022/02/28 01:44:40;;;;;;;4.43;3.13;;;21.20;53.60;;;;;;5109449;28;20418;-83
2022/02/28 01:47:08;;;;;;;4.37;3.00;;;21.20;53.60;;;;;;5092232;28;20416;-83
2022/02/28 01:49:41;;;;;;;3.23;2.90;;;21.20;53.60;;;;;;5091996;28;20420;-83
2022/02/28 01:52:09;;;;;;;3.43;3.00;;;21.20;53.60;;;;;;5109384;28;20447;-83
2022/02/28 01:54:36;;;;;;;4.10;2.87;;;21.20;53.60;;;;;;5110372;28;20416;-83
2022/02/28 01:57:02;;;;;;;5.73;3.17;;;21.20;53.60;;;;;;5091405;28;20423;-83
2022/02/28 01:59:28;;;;;;;3.10;2.60;;;21.20;53.60;;;;;;5109713;28;20257;-83
2022/02/28 02:01:54;;;;;;;3.07;2.70;;;21.20;53.60;;;;;;5092467;28;20412;-83
2022/02/28 02:04:20;;;;;;;5.30;3.13;;;21.20;53.60;;;;;;5091976;28;20412;-83
2022/02/28 02:06:47;;;;;;;3.57;2.90;;;21.20;53.60;;;;;;5109704;28;20169;-83
2022/02/28 02:09:13;;;;;;;3.57;3.27;;;21.20;53.60;;;;;;5109789;28;20177;-83
2022/02/28 02:11:42;;;;;;;4.07;2.87;;;21.20;53.60;;;;;;5109233;28;20445;-83
2022/02/28 02:14:08;;;;;;;3.23;2.90;;;21.20;53.60;;;;;;5091530;28;20430;-83
2022/02/28 02:16:34;;;;;;;3.03;2.73;;;21.20;53.60;;;;;;5091873;28;20419;-83
2022/02/28 02:19:01;;;;;;;3.23;2.70;;;21.20;54.10;;;;;;5109672;28;20447;-83
2022/02/28 02:21:30;;;;;;;3.13;2.60;;;21.20;53.60;;;;;;5077036;28;20430;-83
2022/02/28 02:23:57;;;;;;;3.43;3.03;;;21.20;53.60;;;;;;5097006;28;20412;-83
2022/02/28 02:26:23;;;;;;;2.83;2.60;;;21.20;53.60;;;;;;5134002;28;20411;-83
2022/02/28 02:28:49;;;;;;;3.90;2.90;;;21.20;53.60;;;;;;5098301;28;20425;-83
2022/02/28 02:31:15;;;;;;;3.70;2.77;;;21.20;53.60;;;;;;5119337;28;20418;-84
2022/02/28 02:33:42;;;;;;;4.97;3.23;;;21.20;53.60;;;;;;5120224;28;20173;-84
2022/02/28 02:36:11;;;;;;;3.50;2.80;;;21.20;53.60;;;;;;5120200;28;20414;-84
2022/02/28 02:38:38;;;;;;;3.70;3.10;;;21.10;53.50;;;;;;5128651;28;20461;-84
2022/02/28 02:41:07;;;;;;;4.23;2.90;;;21.20;53.60;;;;;;5109984;28;20490;-84
2022/02/28 02:43:33;;;;;;;3.73;2.73;;;21.20;53.60;;;;;;5118743;28;20426;-84
2022/02/28 02:46:01;;;;;;;4.70;3.20;;;21.10;53.50;;;;;;5117734;28;20423;-84
2022/02/28 02:48:27;;;;;;;4.30;3.10;;;21.10;53.50;;;;;;5082687;28;20403;-84
2022/02/28 02:50:56;;;;;;;4.47;3.27;;;21.10;53.50;;;;;;5099626;28;20479;-84
2022/02/28 02:53:25;;;;;;;3.70;3.00;;;21.10;53.50;;;;;;5100047;28;20399;-84
2022/02/28 02:55:51;;;;;;;4.40;3.40;;;21.10;53.50;;;;;;5082123;28;20431;-84
2022/02/28 02:58:17;;;;;;;4.10;2.60;;;21.10;53.50;;;;;;5103870;28;20443;-84
2022/02/28 03:00:52;;;;;;;4.20;2.80;;;21.10;53.50;;;;;;5078700;28;20416;-84
2022/02/28 03:03:21;;;;;;;3.07;2.77;;;21.10;53.50;;;;;;5078414;28;20241;-84
2022/02/28 03:05:52;;;;;;;3.30;2.90;;;21.10;53.50;;;;;;5095633;28;20400;-84
2022/02/28 03:08:18;;;;;;;3.67;2.90;;;21.10;53.50;;;;;;5078443;28;20397;-84
2022/02/28 03:10:46;;;;;;;4.30;2.53;;;21.10;53.50;;;;;;5094518;28;20419;-84
2022/02/28 03:13:12;;;;;;;3.00;2.53;;;21.10;53.50;;;;;;5081566;28;20774;-84
2022/02/28 03:15:38;;;;;;;3.77;2.70;;;21.10;53.50;;;;;;5095137;28;20981;-84
2022/02/28 03:18:04;;;;;;;4.70;2.70;;;21.10;53.50;;;;;;5095618;28;20561;-84
2022/02/28 03:20:30;;;;;;;5.23;2.57;;;21.10;53.50;;;;;;5114506;28;20501;-83
2022/02/28 03:22:56;;;;;;;3.27;2.87;;;21.10;53.50;;;;;;5095767;28;20467;-83
2022/02/28 03:25:22;;;;;;;3.10;2.43;;;21.10;53.50;;;;;;5095854;28;20203;-83
2022/02/28 03:27:47;;;;;;;4.37;3.17;;;21.10;53.50;;;;;;5113179;28;20181;-83
2022/02/28 03:30:14;;;;;;;3.70;3.07;;;21.10;53.50;;;;;;5107121;28;20173;-83
2022/02/28 03:32:39;;;;;;;4.07;3.00;;;21.10;53.50;;;;;;5114202;28;20169;-83
2022/02/28 03:35:08;;;;;;;3.07;2.77;;;21.10;53.50;;;;;;5132751;28;20407;-83
2022/02/28 03:37:34;;;;;;;4.07;2.87;;;21.10;53.50;;;;;;5115493;28;20217;-83
2022/02/28 03:40:00;;;;;;;3.80;3.13;;;21.10;53.50;;;;;;5115655;28;20454;-83
2022/02/28 03:42:26;;;;;;;4.10;3.37;;;21.10;53.50;;;;;;5115111;28;20437;-83
2022/02/28 03:44:52;;;;;;;3.83;2.70;;;21.10;53.50;;;;;;5115805;28;20411;-83
2022/02/28 03:47:18;;;;;;;4.07;3.20;;;21.10;53.50;;;;;;5133159;28;20410;-83
2022/02/28 03:49:44;;;;;;;3.87;3.37;;;21.10;53.50;;;;;;5115328;28;20176;-83
2022/02/28 03:52:09;;;;;;;4.93;3.17;;;21.10;53.50;;;;;;5132748;28;20157;-83
2022/02/28 03:54:35;;;;;;;3.60;3.00;;;21.10;53.50;;;;;;5114967;28;20248;-83
2022/02/28 03:57:01;;;;;;;2.93;2.37;;;21.10;53.50;;;;;;5132730;28;20173;-83
2022/02/28 03:59:27;;;;;;;3.60;2.83;;;21.10;53.50;;;;;;5133087;28;20214;-83
2022/02/28 04:01:52;;;;;;;3.90;2.60;;;21.10;53.50;;;;;;5115178;28;20169;-83
2022/02/28 04:04:18;;;;;;;3.37;3.03;;;21.10;53.50;;;;;;5132670;28;20165;-83
2022/02/28 04:06:48;;;;;;;2.97;2.60;;;21.10;53.50;;;;;;5128232;28;20169;-84
2022/02/28 04:09:15;;;;;;;3.57;2.77;;;21.10;53.50;;;;;;5112961;28;20173;-84
2022/02/28 04:11:43;;;;;;;3.63;2.77;;;21.10;53.50;;;;;;5097770;28;20473;-84
2022/02/28 04:14:10;;;;;;;3.20;2.77;;;21.00;53.40;;;;;;5114383;28;20411;-84
2022/02/28 04:16:36;;;;;;;3.70;2.77;;;21.10;53.50;;;;;;5114211;28;20414;-83
2022/02/28 04:19:02;;;;;;;3.20;2.47;;;21.10;53.50;;;;;;5113895;28;20454;-83
2022/02/28 04:21:28;;;;;;;2.60;2.40;;;21.10;53.50;;;;;;5132287;28;20165;-84
2022/02/28 04:23:54;;;;;;;4.60;3.47;;;21.00;53.40;;;;;;5112920;28;20506;-84
2022/02/28 04:26:20;;;;;;;3.20;2.63;;;21.00;53.40;;;;;;5112194;28;20181;-84
2022/02/28 04:28:47;;;;;;;5.17;2.70;;;21.00;53.40;;;;;;5093488;28;20200;-84
2022/02/28 04:31:13;;;;;;;3.73;3.03;;;21.10;53.50;;;;;;5092996;28;20420;-84
2022/02/28 04:33:39;;;;;;;3.70;2.70;;;21.00;53.40;;;;;;5093439;28;20476;-84
2022/02/28 04:36:06;;;;;;;2.70;2.33;;;21.00;53.40;;;;;;5094187;28;20434;-83
2022/02/28 04:38:33;;;;;;;3.97;2.80;;;21.00;53.40;;;;;;5112403;28;20532;-83
2022/02/28 04:41:02;;;;;;;4.80;2.90;;;21.00;53.40;;;;;;5094455;28;20439;-83
2022/02/28 04:43:28;;;;;;;4.67;2.83;;;21.10;53.50;;;;;;5094747;28;20609;-83
2022/02/28 04:45:53;;;;;;;3.10;2.40;;;21.00;53.40;;;;;;5093447;28;20415;-83
2022/02/28 04:48:21;;;;;;;3.30;2.80;;;21.00;53.40;;;;;;5094161;28;20181;-83
2022/02/28 04:50:46;;;;;;;6.80;3.87;;;21.00;53.40;;;;;;5111896;28;20189;-84
2022/02/28 04:53:12;;;;;;;4.83;2.83;;;21.00;53.40;;;;;;5112841;28;20806;-83
2022/02/28 04:55:38;;;;;;;3.40;2.67;;;21.00;53.40;;;;;;5094057;28;20247;-83
2022/02/28 04:58:04;;;;;;;3.50;2.90;;;21.00;53.40;;;;;;5093955;28;20428;-84
2022/02/28 05:00:30;;;;;;;3.90;2.87;;;21.00;53.40;;;;;;5093713;28;20203;-83
2022/02/28 05:02:59;;;;;;;3.53;2.93;;;21.00;53.40;;;;;;5099654;28;20431;-83
2022/02/28 05:05:24;;;;;;;3.33;2.80;;;21.00;53.40;;;;;;5089437;28;20216;-83
2022/02/28 05:07:51;;;;;;;4.73;3.30;;;21.00;53.40;;;;;;5098238;28;20424;-83
2022/02/28 05:10:17;;;;;;;2.70;2.37;;;21.00;53.40;;;;;;5090668;28;20430;-83
2022/02/28 05:12:43;;;;;;;3.57;2.77;;;21.00;53.40;;;;;;5093546;28;20430;-84
2022/02/28 05:15:09;;;;;;;3.10;2.80;;;21.00;53.40;;;;;;5090048;28;20497;-83
2022/02/28 05:17:35;;;;;;;3.50;3.00;;;21.00;53.90;;;;;;5101805;28;20420;-83
2022/02/28 05:20:01;;;;;;;2.63;2.23;;;21.00;53.40;;;;;;5100830;28;20524;-83
2022/02/28 05:22:27;;;;;;;3.60;2.73;;;21.00;53.40;;;;;;5102062;28;20444;-83
2022/02/28 05:24:53;;;;;;;3.80;2.60;;;21.00;53.40;;;;;;5093724;28;20781;-83
2022/02/28 05:27:19;;;;;;;2.50;2.30;;;21.00;53.40;;;;;;5093168;28;20181;-83
2022/02/28 05:29:45;;;;;;;3.50;2.60;;;21.00;53.40;;;;;;5101594;28;20252;-84
2022/02/28 05:32:13;;;;;;;2.33;2.13;;;21.00;53.40;;;;;;5104423;28;20208;-84
2022/02/28 05:34:39;;;;;;;3.33;3.03;;;21.00;53.40;;;;;;5107261;28;20506;-83
2022/02/28 05:37:05;;;;;;;3.00;2.63;;;21.00;54.00;;;;;;5093527;28;20428;-83
2022/02/28 05:39:31;;;;;;;3.27;2.90;;;21.00;53.50;;;;;;5092013;28;20470;-83
2022/02/28 05:41:56;;;;;;;2.90;2.43;;;21.00;53.40;;;;;;5093556;28;20219;-83
2022/02/28 05:44:22;;;;;;;3.90;2.90;;;21.00;53.50;;;;;;5105780;28;20181;-83
2022/02/28 05:46:48;;;;;;;3.20;2.37;;;21.00;53.50;;;;;;5089182;28;20178;-83
2022/02/28 05:49:14;;;;;;;2.90;2.63;;;21.00;53.50;;;;;;5102328;28;20181;-83
2022/02/28 05:51:40;;;;;;;2.60;2.37;;;21.00;53.50;;;;;;5110010;28;20240;-83
2022/02/28 05:54:08;;;;;;;2.93;2.53;;;21.00;53.50;;;;;;5094189;28;20186;-83
2022/02/28 05:56:34;;;;;;;3.57;2.93;;;21.00;53.50;;;;;;5098820;28;20195;-83
2022/02/28 05:59:00;;;;;;;2.93;2.33;;;21.00;53.50;;;;;;5114861;28;20450;-83
2022/02/28 06:01:26;;;;;;;3.70;2.57;;;21.00;53.50;;;;;;5114138;28;20471;-84
2022/02/28 06:03:52;;;;;;;3.17;2.20;;;21.00;54.10;;;;;;5095871;28;20434;-83
2022/02/28 06:06:17;;;;;;;4.47;2.97;;;21.00;53.50;;;;;;5104736;28;20249;-84
2022/02/28 06:08:44;;;;;;;4.90;2.60;;;21.00;53.50;;;;;;5091123;28;20194;-83
2022/02/28 06:11:10;;;;;;;2.97;2.67;;;21.00;53.50;;;;;;5094477;28;20631;-83
2022/02/28 06:13:42;;;;;;;2.87;2.23;;;21.00;53.50;;;;;;5092576;28;20405;-84
2022/02/28 06:16:07;;;;;;;3.00;2.43;;;21.00;53.50;;;;;;5091733;28;20241;-88
2022/02/28 06:19:10;;;;;;;2.33;2.10;;;21.00;53.50;;;;;;5074998;28;20471;-83
2022/02/28 06:21:35;;;;;;;2.60;2.33;;;21.00;53.50;;;;;;5053709;28;20678;-83
2022/02/28 06:24:01;;;;;;;3.43;2.47;;;21.00;53.50;;;;;;5095681;28;20424;-83
2022/02/28 06:26:27;;;;;;;2.63;2.33;;;21.00;53.50;;;;;;5113866;28;20166;-88
2022/02/28 06:28:53;;;;;;;3.90;2.70;;;21.00;53.50;;;;;;5095221;28;20422;-83
2022/02/28 06:31:20;;;;;;;3.30;2.93;;;21.00;53.50;;;;;;5095525;28;20185;-83
2022/02/28 06:33:46;;;;;;;3.33;2.90;;;21.10;53.50;;;;;;5095697;28;20186;-83
2022/02/28 06:36:12;;;;;;;3.90;2.80;;;21.10;53.50;;;;;;5095849;28;20413;-83
2022/02/28 06:38:38;;;;;;;3.20;2.33;;;21.10;53.50;;;;;;5113696;28;20463;-83
2022/02/28 06:41:05;;;;;;;3.00;2.20;;;21.10;53.50;;;;;;5080095;28;20914;-83
2022/02/28 06:43:31;;;;;;;2.67;2.30;;;21.10;53.50;;;;;;5113494;28;20399;-83
2022/02/28 06:45:57;;;;;;;3.70;2.50;;;21.10;53.50;;;;;;5095643;28;20438;-83
2022/02/28 06:48:25;;;;;;;3.10;2.80;;;21.10;53.50;;;;;;5095956;28;20182;-83
2022/02/28 06:50:51;;;;;;;3.90;2.47;;;21.10;53.50;;;;;;5095400;28;20502;-83
2022/02/28 06:53:22;;;;;;;3.27;2.60;;;21.20;53.60;;;;;;5113303;28;20415;-83
2022/02/28 06:55:49;;;;;;;3.30;2.63;;;21.20;53.60;;;;;;5095465;28;20469;-83
2022/02/28 06:58:21;;;;;;;2.77;2.13;;;21.20;53.60;;;;;;5095399;28;20408;-83
2022/02/28 07:00:48;;;;;;;3.13;2.80;;;21.20;53.60;;;;;;5112657;28;20408;-83
2022/02/28 07:03:14;;;;;;;3.50;2.80;;;21.20;53.60;;;;;;5094152;28;20415;-83
2022/02/28 07:05:40;;;;;;;2.13;1.83;;;21.20;53.60;;;;;;5074602;28;20487;-83
2022/02/28 07:08:08;;;;;;;3.40;3.10;;;21.20;53.60;;;;;;5091192;28;20495;-83
2022/02/28 07:10:34;;;;;;;3.00;2.70;;;21.20;53.60;;;;;;5099958;28;20412;-83
2022/02/28 07:13:01;;;;;;;3.27;2.77;;;21.20;53.60;;;;;;5084722;28;20446;-83
2022/02/28 07:15:27;;;;;;;3.00;2.53;;;21.20;53.60;;;;;;5099491;28;20415;-83
2022/02/28 07:17:53;;;;;;;3.30;2.60;;;21.30;53.60;;;;;;5096313;28;20483;-85
2022/02/28 07:20:22;;;;;;;4.57;2.50;;;21.30;53.60;;;;;;5093758;28;20205;-83
2022/02/28 07:22:49;;;;;;;3.00;2.20;;;21.30;53.60;;;;;;5090696;28;20448;-82
2022/02/28 07:25:16;;;;;;;3.83;2.63;;;21.30;53.60;;;;;;5087329;28;20432;-82
2022/02/28 07:27:45;;;;;;;4.03;2.57;;;21.30;53.60;;;;;;5062756;28;20440;-82
2022/02/28 07:30:14;;;;;;;4.10;2.95;;;21.30;53.60;;;;;;5094841;28;20418;-81
2022/02/28 07:32:43;;;;;;;3.43;2.57;;;21.50;53.60;;;;;;5096642;28;20177;-81
2022/02/28 07:35:10;;;;;;;2.67;2.47;;;21.60;53.40;;;;;;5095808;28;20484;-81
2022/02/28 07:37:40;;;;;;;2.93;2.47;;;21.60;53.40;;;;;;5079073;28;20424;-82
2022/02/28 07:40:08;;;;;;;4.20;2.80;;;21.60;53.40;;;;;;5097312;28;20512;-81
2022/02/28 07:42:37;;;;;;;3.67;3.10;;;21.60;53.40;;;;;;5078328;28;20429;-81
2022/02/28 07:45:07;;;;;;;5.50;2.77;;;21.60;53.50;;;;;;5096750;28;20420;-81
2022/02/28 07:47:38;;;;;;;2.87;2.30;;;21.60;53.50;;;;;;5078903;28;20413;-81
2022/02/28 07:53:26;;;;;;;4.90;3.53;;;21.60;53.60;;;;;;5096936;28;20399;-81
2022/02/28 07:55:54;;;;;;;2.67;1.90;;;21.60;53.60;;;;;;5096452;28;20416;-81
2022/02/28 07:58:20;;;;;;;2.70;2.40;;;21.60;53.70;;;;;;5078606;28;20432;-81
2022/02/28 08:00:48;;;;;;;2.97;2.50;;;21.60;53.70;;;;;;5096028;28;20827;-81
2022/02/28 08:03:14;;;;;;;4.57;2.87;;;21.60;53.70;;;;;;5078744;28;20413;-82
2022/02/28 08:05:40;;;;;;;2.90;2.60;;;21.60;53.70;;;;;;5078063;28;20420;-82
2022/02/28 08:08:09;;;;;;;3.10;2.53;;;21.70;53.70;;;;;;5095544;28;20429;-82
2022/02/28 08:10:36;;;;;;;3.40;2.70;;;21.70;53.70;;;;;;5078612;28;20405;-82
2022/02/28 08:13:11;;;;;;;3.03;2.73;;;21.70;53.70;;;;;;5077905;28;20413;-81
2022/02/28 08:15:43;;;;;;;3.33;2.37;;;21.70;53.70;;;;;;5095593;28;20392;-81
2022/02/28 08:18:11;;;;;;;2.73;2.13;;;21.80;53.80;;;;;;5095375;28;20400;-81
2022/02/28 08:20:42;;;;;;;2.70;2.20;;;21.70;53.70;;;;;;5095644;28;20503;-82
2022/02/28 08:23:12;;;;;;;2.70;2.50;;;21.80;53.80;;;;;;5060910;28;20504;-82
2022/02/28 08:25:42;;;;;;;3.03;2.73;;;21.80;53.80;;;;;;5077653;28;20408;-82
2022/02/28 08:28:08;;;;;;;2.83;2.33;;;21.80;53.80;;;;;;5077455;28;20420;-82
2022/02/28 08:30:35;;;;;;;3.00;2.17;;;21.80;53.80;;;;;;5078310;28;20432;-82
2022/02/28 08:33:01;;;;;;;2.63;2.43;;;21.80;53.80;;;;;;5078269;28;20425;-82
2022/02/28 08:35:28;;;;;;;2.60;2.30;;;21.80;53.80;;;;;;5095858;28;20423;-82
2022/02/28 08:37:54;;;;;;;2.60;2.40;;;21.80;53.80;;;;;;5061269;28;20432;-82
2022/02/28 08:40:23;;;;;;;2.97;2.77;;;21.80;53.80;;;;;;5076383;28;20516;-82
2022/02/28 08:42:49;;;;;;;3.27;2.37;;;21.90;53.80;;;;;;5078213;28;20174;-82
2022/02/28 08:45:22;;;;;;;2.77;2.23;;;21.90;53.80;;;;;;5078105;28;20891;-82
2022/02/28 08:47:54;;;;;;;3.07;2.50;;;21.90;53.80;;;;;;5095018;28;20397;-82
2022/02/28 08:50:50;;;;;;;2.90;2.33;;;21.90;53.80;;;;;;5077002;28;20431;-82
2022/02/28 08:53:17;;;;;;;2.40;2.10;;;21.90;53.80;;;;;;5080059;28;20416;-82
2022/02/28 08:55:45;;;;;;;2.70;2.50;;;21.90;53.80;;;;;;5093799;28;20444;-82
2022/02/28 08:58:11;;;;;;;3.23;2.87;;;21.90;53.80;;;;;;5077119;28;20910;-82
2022/02/28 09:00:59;;;;;;;2.57;2.37;;;21.90;53.80;;;;;;5075770;28;20432;-82
2022/02/28 09:03:27;;;;;;;3.17;2.10;;;21.90;53.80;;;;;;5013950;28;20413;-82
2022/02/28 09:05:55;;;;;;;3.03;2.40;;;21.90;53.80;;;;;;4997751;28;20420;-82
2022/02/28 09:08:21;;;;;;;2.63;2.00;;;21.90;53.80;;;;;;5013697;28;20447;-82
2022/02/28 09:10:47;;;;;;;2.87;2.50;;;21.90;53.80;;;;;;5013741;28;20505;-82
2022/02/28 09:13:13;;;;;;;2.77;2.40;;;22.00;53.90;;;;;;4997409;28;20431;-82
2022/02/28 09:15:39;;;;;;;2.80;2.43;;;22.00;53.90;;;;;;4997497;28;20459;-82
2022/02/28 09:18:08;;;;;;;3.53;2.30;;;22.00;53.80;;;;;;4997791;28;20184;-82
2022/02/28 09:20:40;;;;;;;2.73;2.40;;;22.00;53.90;;;;;;5013666;28;20520;-82
2022/02/28 09:23:10;;;;;;;3.07;2.33;;;22.00;53.90;;;;;;5013614;28;20423;-82
2022/02/28 09:25:38;;;;;;;2.27;2.07;;;22.00;53.90;;;;;;5013920;28;20397;-82
2022/02/28 09:28:05;;;;;;;2.43;1.90;;;22.00;53.90;;;;;;5013777;28;20420;-82
2022/02/28 09:30:37;;;;;;;2.90;2.60;;;22.00;53.90;;;;;;4999001;28;20461;-82
2022/02/28 09:33:06;;;;;;;2.40;2.20;;;22.00;53.90;;;;;;5001968;28;20439;-82
2022/02/28 09:35:48;;;;;;;2.17;1.90;;;22.00;53.80;;;;;;5018530;28;20400;-82
2022/02/28 09:38:15;;;;;;;3.10;2.50;;;22.00;53.90;;;;;;5017799;28;20424;-82
2022/02/28 09:40:46;;;;;;;2.53;2.13;;;22.00;53.80;;;;;;5068151;28;20416;-82
2022/02/28 09:43:18;;;;;;;2.70;2.33;;;22.00;53.80;;;;;;5082081;28;20397;-82
2022/02/28 09:45:46;;;;;;;2.50;2.30;;;22.10;53.90;;;;;;5081583;28;20396;-82
2022/02/28 09:48:14;;;;;;;2.20;2.00;;;22.10;53.90;;;;;;5098600;28;20413;-82
2022/02/28 09:50:45;;;;;;;2.13;1.93;;;22.10;53.90;;;;;;5081860;28;20416;-82
2022/02/28 09:53:11;;;;;;;2.53;2.17;;;22.10;53.90;;;;;;5081248;28;20436;-82
2022/02/28 09:55:37;;;;;;;2.60;2.40;;;22.10;53.90;;;;;;5081390;28;20443;-82
2022/02/28 09:58:11;;;;;;;3.07;2.37;;;22.10;53.90;;;;;;5098017;28;20412;-82
2022/02/28 10:00:46;;;;;;;2.40;2.07;;;22.10;53.90;;;;;;5098311;28;20396;-82
2022/02/28 10:03:13;;;;;;;3.27;2.20;;;22.10;53.90;;;;;;5080820;28;20408;-82
2022/02/28 10:05:41;;;;;;;2.30;2.10;;;22.10;53.90;;;;;;5098422;28;20412;-82
2022/02/28 10:08:14;;;;;;;2.77;2.20;;;22.10;53.90;;;;;;5098263;28;20413;-82
2022/02/28 10:10:44;;;;;;;2.90;2.23;;;22.10;53.90;;;;;;5098815;28;20397;-82
2022/02/28 10:13:12;;;;;;;2.87;2.50;;;22.10;53.90;;;;;;5064950;28;20424;-82
2022/02/28 10:15:38;;;;;;;2.30;2.03;;;22.10;53.90;;;;;;5098177;28;20428;-82
2022/02/28 10:18:07;;;;;;;2.73;2.50;;;22.10;53.90;;;;;;5098659;28;20440;-82
2022/02/28 10:20:44;;;;;;;3.13;2.70;;;22.10;53.90;;;;;;5097920;28;20448;-82
2022/02/28 10:23:12;;;;;;;3.13;2.63;;;22.10;53.90;;;;;;5098199;28;20439;-82
2022/02/28 10:25:42;;;;;;;3.47;1.97;;;22.10;53.90;;;;;;5098528;28;20412;-82
2022/02/28 10:28:17;;;;;;;2.10;1.90;;;22.10;53.90;;;;;;5080941;28;20387;-82
2022/02/28 10:31:07;;;;;;;2.40;2.10;;;22.10;53.90;;;;;;5097890;28;20392;-82
2022/02/28 10:33:41;;;;;;;2.60;2.07;;;22.10;53.90;;;;;;5080797;28;20936;-82
2022/02/28 10:36:45;;;;;;;;;;;;;;;;;;;;;
2022/02/28 10:39:14;;;;;;;2.50;2.03;;;22.10;53.90;;;;;;5037060;28;20482;-82
2022/02/28 10:41:43;;;;;;;2.20;1.73;;;22.10;53.90;;;;;;5018985;28;20428;-82
2022/02/28 10:44:12;;;;;;;3.03;2.10;;;22.10;53.90;;;;;;5036426;28;20470;-82
2022/02/28 10:46:43;;;;;;;2.20;1.70;;;22.10;53.90;;;;;;5020693;28;20415;-82
2022/02/28 10:49:16;;;;;;;2.43;2.23;;;22.10;53.90;;;;;;5036860;28;20396;-82
2022/02/28 10:51:59;;;;;;;2.40;2.13;;;22.10;53.90;;;;;;5036358;28;20392;-82
2022/02/28 10:54:28;;;;;;;2.27;2.07;;;22.10;53.90;;;;;;5019909;28;20403;-82
2022/02/28 10:57:11;;;;;;;2.77;1.87;;;22.10;54.00;;;;;;5019661;28;20435;-82
2022/02/28 10:59:44;;;;;;;2.30;1.90;;;22.10;53.90;;;;;;5036134;28;20515;-82
2022/02/28 11:02:37;;;;;;;3.40;2.37;;;22.10;53.90;;;;;;5035810;28;20408;-82
2022/02/28 11:05:11;;;;;;;2.57;2.00;;;22.10;53.90;;;;;;5036478;28;20498;-82
2022/02/28 11:07:54;;;;;;;2.63;2.30;;;22.10;53.90;;;;;;5036209;28;20416;-82
2022/02/28 11:10:22;;;;;;;2.23;2.03;;;22.10;53.90;;;;;;5019453;28;20515;-82
2022/02/28 11:12:50;;;;;;;3.10;2.23;;;22.10;53.90;;;;;;5019064;28;20395;-82
2022/02/28 11:15:20;;;;;;;2.27;2.07;;;22.10;53.90;;;;;;5039511;28;20512;-82
2022/02/28 11:18:00;;;;;;;2.50;2.20;;;22.10;53.90;;;;;;5079831;28;20417;-81
2022/02/28 11:20:32;;;;;;;2.57;2.10;;;22.10;53.90;;;;;;5115087;28;20461;-81
2022/02/28 11:23:04;;;;;;;2.90;2.03;;;22.10;53.90;;;;;;5117135;28;20510;-81
2022/02/28 11:25:55;;;;;;;2.53;1.93;;;22.10;53.90;;;;;;5117463;28;20481;-81
2022/02/28 11:28:22;;;;;;;2.40;2.20;;;22.10;53.90;;;;;;5116979;28;20392;-82
2022/02/28 11:30:51;;;;;;;2.57;2.07;;;22.10;53.90;;;;;;5117269;28;20392;-82
2022/02/28 11:33:18;;;;;;;1.87;1.67;;;22.10;53.90;;;;;;5082928;28;20416;-81
2022/02/28 11:39:11;;;;;;;2.27;2.07;;;22.10;53.80;;;;;;5095407;28;20898;-81
2022/02/28 11:41:37;;;;;;;3.07;2.27;;;22.10;53.80;;;;;;5099467;28;20454;-81
2022/02/28 11:44:08;;;;;;;2.20;2.00;;;22.10;53.80;;;;;;5092911;28;20438;-81
2022/02/28 11:46:43;;;;;;;2.50;2.13;;;22.10;54.40;;;;;;5082148;28;20411;-81
2022/02/28 11:49:10;;;;;;;1.93;1.60;;;22.10;53.80;;;;;;5099105;28;20394;-81
2022/02/28 11:51:42;;;;;;;2.40;1.97;;;22.10;53.80;;;;;;5079015;28;20447;-81
2022/02/28 11:54:45;;;;;;;2.20;2.00;;;22.10;53.80;;;;;;5079727;28;20417;-81
2022/02/28 11:57:11;;;;;;;2.40;2.00;;;22.10;53.80;;;;;;5019892;28;20462;-81
2022/02/28 11:59:45;;;;;;;2.30;1.90;;;22.10;53.80;;;;;;5002343;28;20502;-81
2022/02/28 12:05:47;;;;;;;2.60;2.40;;;22.10;53.80;;;;;;5034479;28;20456;-82
2022/02/28 12:08:19;;;;;;;2.47;2.27;;;22.10;53.80;;;;;;5036308;28;20414;-81
2022/02/28 12:11:14;;;;;;;3.10;1.97;;;22.10;54.50;;;;;;5003756;28;20435;-82
2022/02/28 12:13:42;;;;;;;2.07;1.63;;;22.10;53.90;;;;;;5046830;28;20395;-81
2022/02/28 12:17:31;;;;;;;2.27;2.00;;;22.10;53.90;;;;;;5038812;28;20442;-80
2022/02/28 12:19:16;;;;;;;2.50;2.20;;;22.10;53.90;;;;;;5054900;28;20442;-80
2022/02/28 12:22:00;;;;;;;2.70;2.50;;;22.10;53.90;;;;;;5053494;28;20419;-80
2022/02/28 12:25:04;;;;;;;2.23;2.03;;;22.10;53.90;;;;;;5039422;28;20477;-81
2022/02/28 12:27:47;;;;;;;2.33;1.90;;;22.10;54.00;;;;;;5054292;28;20406;-80
2022/02/28 12:30:47;;;;;;;4.50;2.70;;;22.10;54.00;;;;;;5037592;28;20440;-80
2022/02/28 12:33:16;;;;;;;5.40;4.23;;;22.10;54.00;;;;;;5065604;28;20435;-80
2022/02/28 12:36:20;;;;;;;8.43;4.00;;;22.10;54.10;;;;;;5082119;28;20439;-80
2022/02/28 12:38:57;;;;;;;8.37;4.87;;;22.10;54.00;;;;;;5115652;28;20470;-81
2022/02/28 12:41:49;;;;;;;6.93;4.17;;;22.10;54.10;;;;;;5098140;28;20396;-81
2022/02/28 12:44:31;;;;;;;9.13;5.03;;;22.10;54.10;;;;;;5032172;28;20422;-81
2022/02/28 12:46:58;;;;;;;7.70;5.20;;;22.10;54.10;;;;;;5034312;28;20439;-81
2022/02/28 12:49:27;;;;;;;6.57;4.33;;;22.10;54.10;;;;;;5033870;28;20444;-81
2022/02/28 12:51:56;;;;;;;7.07;4.50;;;22.10;54.10;;;;;;5017513;28;20423;-81
2022/02/28 12:54:26;;;;;;;7.93;4.83;;;22.10;54.10;;;;;;5016486;28;20429;-81
2022/02/28 12:56:58;;;;;;;6.93;5.00;;;22.10;54.10;;;;;;5001559;28;20422;-81
2022/02/28 12:59:45;;;;;;;7.47;5.53;;;22.10;54.00;;;;;;5033782;28;20467;-82
2022/02/28 13:02:17;;;;;;;7.37;5.17;;;22.10;54.00;;;;;;5018180;28;20426;-82
2022/02/28 13:04:58;;;;;;;8.70;5.97;;;22.10;54.00;;;;;;5015520;28;20400;-81
2022/02/28 13:07:31;;;;;;;11.53;6.07;;;22.10;54.10;;;;;;5019032;28;20442;-81
2022/02/28 13:10:02;;;;;;;6.50;4.90;;;22.10;54.10;;;;;;5002554;28;20421;-81